Terminal Aerodrome Forecast
Issued by NWS

Home | Current Version | Previous Version | Text Only | Print | Product List | Glossary On
Versions: 1 2 3 4 5 6 7 8 9 10 11 12 13 14 15 16 17 18
000
FTUS45 KGJT 211120
TAFRIL
TAF
KRIL 211120Z 2112/2212 00000KT P6SM SCT250
     FM211800 29009G15KT P6SM FEW090 BKN250
     FM220200 15004KT P6SM SCT250=

USA.gov is the U.S. government's official web portal to all federal, state and local government web resources and services.